sensor_id;sensor_type;location;lat;lon;timestamp;temperature;humidity
32446;DHT22;18899;50.748;7.102;2024-03-23T00:55:42;8.50;99.90
32446;DHT22;18899;50.748;7.102;2024-03-23T00:58:08;8.60;99.90
32446;DHT22;18899;50.748;7.102;2024-03-23T01:00:33;8.60;99.90
32446;DHT22;18899;50.748;7.102;2024-03-23T01:02:59;8.70;99.90
32446;DHT22;18899;50.748;7.102;2024-03-23T01:05:24;8.70;99.90
32446;DHT22;18899;50.748;7.102;2024-03-23T01:07:50;8.70;99.90
32446;DHT22;18899;50.748;7.102;2024-03-23T01:10:15;8.70;99.90
32446;DHT22;18899;50.748;7.102;2024-03-23T01:12:41;8.70;99.90
32446;DHT22;18899;50.748;7.102;2024-03-23T01:15:07;8.70;99.90
32446;DHT22;18899;50.748;7.102;2024-03-23T01:17:32;8.60;99.90
32446;DHT22;18899;50.748;7.102;2024-03-23T01:19:58;8.60;99.90
32446;DHT22;18899;50.748;7.102;2024-03-23T01:22:24;8.70;99.90
32446;DHT22;18899;50.748;7.102;2024-03-23T01:24:49;8.70;99.90
32446;DHT22;18899;50.748;7.102;2024-03-23T01:27:15;8.60;99.90
32446;DHT22;18899;50.748;7.102;2024-03-23T01:29:40;8.60;99.90
32446;DHT22;18899;50.748;7.102;2024-03-23T01:32:06;8.60;99.90
32446;DHT22;18899;50.748;7.102;2024-03-23T01:34:32;8.60;99.90
32446;DHT22;18899;50.748;7.102;2024-03-23T01:36:57;8.60;99.90
32446;DHT22;18899;50.748;7.102;2024-03-23T01:39:24;8.50;99.90
32446;DHT22;18899;50.748;7.102;2024-03-23T01:41:49;8.50;99.90
32446;DHT22;18899;50.748;7.102;2024-03-23T01:44:15;8.50;99.90
32446;DHT22;18899;50.748;7.102;2024-03-23T01:46:41;8.60;99.90
32446;DHT22;18899;50.748;7.102;2024-03-23T01:49:08;8.60;99.90
32446;DHT22;18899;50.748;7.102;2024-03-23T01:51:34;8.60;99.90
32446;DHT22;18899;50.748;7.102;2024-03-23T01:54:00;8.60;99.90
32446;DHT22;18899;50.748;7.102;2024-03-23T01:56:37;8.50;99.90
32446;DHT22;18899;50.748;7.102;2024-03-23T01:59:03;8.50;99.90
32446;DHT22;18899;50.748;7.102;2024-03-23T02:01:29;8.50;99.90
32446;DHT22;18899;50.748;7.102;2024-03-23T02:03:55;8.40;99.90
32446;DHT22;18899;50.748;7.102;2024-03-23T02:06:21;8.40;99.90
32446;DHT22;18899;50.748;7.102;2024-03-23T02:08:46;8.40;99.90
32446;DHT22;18899;50.748;7.102;2024-03-23T02:11:12;8.40;99.90
32446;DHT22;18899;50.748;7.102;2024-03-23T02:13:37;8.40;99.90
32446;DHT22;18899;50.748;7.102;2024-03-23T02:16:05;8.40;99.90
32446;DHT22;18899;50.748;7.102;2024-03-23T02:18:31;8.40;99.90
32446;DHT22;18899;50.748;7.102;2024-03-23T02:20:56;8.30;99.90
32446;DHT22;18899;50.748;7.102;2024-03-23T02:23:22;8.20;99.90
32446;DHT22;18899;50.748;7.102;2024-03-23T02:25:47;8.10;99.90
32446;DHT22;18899;50.748;7.102;2024-03-23T02:28:13;8.00;99.90
32446;DHT22;18899;50.748;7.102;2024-03-23T02:30:38;7.80;99.90
32446;DHT22;18899;50.748;7.102;2024-03-23T02:33:04;7.80;99.90
32446;DHT22;18899;50.748;7.102;2024-03-23T02:35:30;7.70;99.90
32446;DHT22;18899;50.748;7.102;2024-03-23T02:37:55;7.70;99.90
32446;DHT22;18899;50.748;7.102;2024-03-23T02:40:23;7.60;99.90
32446;DHT22;18899;50.748;7.102;2024-03-23T02:42:49;7.50;99.90
32446;DHT22;18899;50.748;7.102;2024-03-23T02:45:14;7.50;99.90
32446;DHT22;18899;50.748;7.102;2024-03-23T02:47:40;7.60;99.90
32446;DHT22;18899;50.748;7.102;2024-03-23T02:50:06;7.50;99.90
32446;DHT22;18899;50.748;7.102;2024-03-23T02:52:31;7.40;99.90
32446;DHT22;18899;50.748;7.102;2024-03-23T02:54:57;7.20;99.90
32446;DHT22;18899;50.748;7.102;2024-03-23T02:57:23;7.30;99.90
32446;DHT22;18899;50.748;7.102;2024-03-23T02:59:48;7.30;99.90
32446;DHT22;18899;50.748;7.102;2024-03-23T03:02:15;7.20;99.90
32446;DHT22;18899;50.748;7.102;2024-03-23T03:04:41;7.20;99.90
32446;DHT22;18899;50.748;7.102;2024-03-23T03:07:06;7.20;99.90
32446;DHT22;18899;50.748;7.102;2024-03-23T03:09:32;7.20;99.90
32446;DHT22;18899;50.748;7.102;2024-03-23T03:11:58;7.20;99.90
32446;DHT22;18899;50.748;7.102;2024-03-23T03:14:24;7.20;99.90
32446;DHT22;18899;50.748;7.102;2024-03-23T03:16:49;7.20;99.90
32446;DHT22;18899;50.748;7.102;2024-03-23T03:19:15;7.10;99.90
32446;DHT22;18899;50.748;7.102;2024-03-23T03:21:42;7.00;99.90
32446;DHT22;18899;50.748;7.102;2024-03-23T03:24:07;7.00;99.90
32446;DHT22;18899;50.748;7.102;2024-03-23T03:26:33;6.90;99.90
32446;DHT22;18899;50.748;7.102;2024-03-23T03:28:58;6.70;99.90
32446;DHT22;18899;50.748;7.102;2024-03-23T03:31:24;6.60;99.90
32446;DHT22;18899;50.748;7.102;2024-03-23T03:33:50;6.50;99.90
32446;DHT22;18899;50.748;7.102;2024-03-23T03:36:16;6.60;99.90
32446;DHT22;18899;50.748;7.102;2024-03-23T03:38:42;6.60;99.90
32446;DHT22;18899;50.748;7.102;2024-03-23T03:41:07;6.50;99.90
32446;DHT22;18899;50.748;7.102;2024-03-23T03:43:33;6.40;99.90
32446;DHT22;18899;50.748;7.102;2024-03-23T03:45:59;6.40;99.90
32446;DHT22;18899;50.748;7.102;2024-03-23T03:48:26;6.40;99.90
32446;DHT22;18899;50.748;7.102;2024-03-23T03:50:52;6.50;99.90
32446;DHT22;18899;50.748;7.102;2024-03-23T03:53:17;6.60;99.90
32446;DHT22;18899;50.748;7.102;2024-03-23T03:55:43;6.60;99.90
32446;DHT22;18899;50.748;7.102;2024-03-23T03:58:08;6.50;99.90
32446;DHT22;18899;50.748;7.102;2024-03-23T04:00:34;6.50;99.90
32446;DHT22;18899;50.748;7.102;2024-03-23T04:03:00;6.50;99.90
32446;DHT22;18899;50.748;7.102;2024-03-23T04:05:26;6.40;99.90
32446;DHT22;18899;50.748;7.102;2024-03-23T04:07:52;6.40;99.90
32446;DHT22;18899;50.748;7.102;2024-03-23T04:10:17;6.30;99.90
32446;DHT22;18899;50.748;7.102;2024-03-23T04:12:44;6.20;99.90
32446;DHT22;18899;50.748;7.102;2024-03-23T04:15:10;6.20;99.90
32446;DHT22;18899;50.748;7.102;2024-03-23T04:17:35;6.30;99.90
32446;DHT22;18899;50.748;7.102;2024-03-23T04:20:02;6.20;99.90
32446;DHT22;18899;50.748;7.102;2024-03-23T04:22:28;6.30;99.90
32446;DHT22;18899;50.748;7.102;2024-03-23T04:24:54;6.30;99.90
32446;DHT22;18899;50.748;7.102;2024-03-23T04:27:20;6.30;99.90
32446;DHT22;18899;50.748;7.102;2024-03-23T04:29:52;6.20;99.90
32446;DHT22;18899;50.748;7.102;2024-03-23T04:32:21;6.30;99.90
32446;DHT22;18899;50.748;7.102;2024-03-23T04:34:46;6.30;99.90
32446;DHT22;18899;50.748;7.102;2024-03-23T04:37:12;6.30;99.90
32446;DHT22;18899;50.748;7.102;2024-03-23T04:39:37;6.30;99.90
32446;DHT22;18899;50.748;7.102;2024-03-23T04:42:04;6.30;99.90
32446;DHT22;18899;50.748;7.102;2024-03-23T04:44:30;6.40;99.90
32446;DHT22;18899;50.748;7.102;2024-03-23T04:46:56;6.30;99.90
32446;DHT22;18899;50.748;7.102;2024-03-23T04:49:22;6.40;99.90
32446;DHT22;18899;50.748;7.102;2024-03-23T04:51:47;6.40;99.90
32446;DHT22;18899;50.748;7.102;2024-03-23T04:54:13;6.40;99.90
32446;DHT22;18899;50.748;7.102;2024-03-23T04:56:38;6.40;99.90
32446;DHT22;18899;50.748;7.102;2024-03-23T04:59:04;6.40;99.90
32446;DHT22;18899;50.748;7.102;2024-03-23T05:01:31;6.40;99.90
32446;DHT22;18899;50.748;7.102;2024-03-23T05:03:57;6.40;99.90
32446;DHT22;18899;50.748;7.102;2024-03-23T05:06:23;6.40;99.90
32446;DHT22;18899;50.748;7.102;2024-03-23T05:08:48;6.40;99.90
32446;DHT22;18899;50.748;7.102;2024-03-23T05:11:14;6.40;99.90
32446;DHT22;18899;50.748;7.102;2024-03-23T05:13:41;6.50;99.90
32446;DHT22;18899;50.748;7.102;2024-03-23T05:16:06;6.40;99.90
32446;DHT22;18899;50.748;7.102;2024-03-23T05:18:32;6.40;99.90
32446;DHT22;18899;50.748;7.102;2024-03-23T05:20:58;6.40;99.90
32446;DHT22;18899;50.748;7.102;2024-03-23T05:23:24;6.40;99.90
32446;DHT22;18899;50.748;7.102;2024-03-23T05:25:50;6.40;99.90
32446;DHT22;18899;50.748;7.102;2024-03-23T05:28:17;6.40;99.90
32446;DHT22;18899;50.748;7.102;2024-03-23T05:30:43;6.40;99.90
32446;DHT22;18899;50.748;7.102;2024-03-23T05:33:08;6.50;99.90
32446;DHT22;18899;50.748;7.102;2024-03-23T05:35:34;6.60;99.90
32446;DHT22;18899;50.748;7.102;2024-03-23T05:37:59;6.60;99.90
32446;DHT22;18899;50.748;7.102;2024-03-23T05:40:28;6.50;99.90
32446;DHT22;18899;50.748;7.102;2024-03-23T05:42:54;6.50;99.90
32446;DHT22;18899;50.748;7.102;2024-03-23T05:45:21;6.50;99.90
32446;DHT22;18899;50.748;7.102;2024-03-23T05:47:48;6.50;99.90
32446;DHT22;18899;50.748;7.102;2024-03-23T05:50:14;6.40;99.90
32446;DHT22;18899;50.748;7.102;2024-03-23T05:52:39;6.50;99.90
32446;DHT22;18899;50.748;7.102;2024-03-23T05:55:06;6.50;99.90
32446;DHT22;18899;50.748;7.102;2024-03-23T05:57:31;6.50;99.90
32446;DHT22;18899;50.748;7.102;2024-03-23T05:59:57;6.50;99.90
32446;DHT22;18899;50.748;7.102;2024-03-23T06:02:23;6.50;99.90
32446;DHT22;18899;50.748;7.102;2024-03-23T06:04:49;6.50;99.90
32446;DHT22;18899;50.748;7.102;2024-03-23T06:07:14;6.50;99.90
32446;DHT22;18899;50.748;7.102;2024-03-23T06:09:41;6.50;99.90
32446;DHT22;18899;50.748;7.102;2024-03-23T06:12:06;6.50;99.90
32446;DHT22;18899;50.748;7.102;2024-03-23T06:14:32;6.50;99.90
32446;DHT22;18899;50.748;7.102;2024-03-23T06:16:58;6.50;99.90
32446;DHT22;18899;50.748;7.102;2024-03-23T06:19:24;6.50;99.90
32446;DHT22;18899;50.748;7.102;2024-03-23T06:21:52;6.50;99.90
32446;DHT22;18899;50.748;7.102;2024-03-23T06:24:18;6.60;99.90
32446;DHT22;18899;50.748;7.102;2024-03-23T06:26:43;6.60;99.90
32446;DHT22;18899;50.748;7.102;2024-03-23T06:29:09;6.60;99.90
32446;DHT22;18899;50.748;7.102;2024-03-23T06:31:34;6.70;99.90
32446;DHT22;18899;50.748;7.102;2024-03-23T06:34:00;6.80;99.90
32446;DHT22;18899;50.748;7.102;2024-03-23T06:36:27;6.80;99.90
32446;DHT22;18899;50.748;7.102;2024-03-23T06:38:52;6.90;99.90
32446;DHT22;18899;50.748;7.102;2024-03-23T06:41:19;6.90;99.90
32446;DHT22;18899;50.748;7.102;2024-03-23T06:43:44;6.90;99.90
32446;DHT22;18899;50.748;7.102;2024-03-23T06:46:10;7.10;99.90
32446;DHT22;18899;50.748;7.102;2024-03-23T06:48:35;7.50;99.90
32446;DHT22;18899;50.748;7.102;2024-03-23T06:51:01;7.90;99.90
32446;DHT22;18899;50.748;7.102;2024-03-23T06:53:26;8.90;99.90
32446;DHT22;18899;50.748;7.102;2024-03-23T06:55:53;9.90;99.90
32446;DHT22;18899;50.748;7.102;2024-03-23T06:58:23;10.90;99.90
32446;DHT22;18899;50.748;7.102;2024-03-23T07:00:49;12.20;99.90
32446;DHT22;18899;50.748;7.102;2024-03-23T07:03:15;13.30;99.90
32446;DHT22;18899;50.748;7.102;2024-03-23T07:05:40;14.30;99.90
32446;DHT22;18899;50.748;7.102;2024-03-23T07:08:07;15.00;99.90
32446;DHT22;18899;50.748;7.102;2024-03-23T07:10:32;15.50;99.90
32446;DHT22;18899;50.748;7.102;2024-03-23T07:12:58;16.10;99.90
32446;DHT22;18899;50.748;7.102;2024-03-23T07:15:24;16.50;96.90
32446;DHT22;18899;50.748;7.102;2024-03-23T07:17:49;16.80;95.40
32446;DHT22;18899;50.748;7.102;2024-03-23T07:20:15;17.00;95.60
32446;DHT22;18899;50.748;7.102;2024-03-23T07:22:41;17.40;93.20
32446;DHT22;18899;50.748;7.102;2024-03-23T07:25:07;17.70;92.10
32446;DHT22;18899;50.748;7.102;2024-03-23T07:27:32;17.90;91.20
32446;DHT22;18899;50.748;7.102;2024-03-23T07:29:59;18.60;89.70
32446;DHT22;18899;50.748;7.102;2024-03-23T07:32:26;19.10;86.30
32446;DHT22;18899;50.748;7.102;2024-03-23T07:34:52;19.30;83.10
32446;DHT22;18899;50.748;7.102;2024-03-23T07:37:18;20.00;80.30
32446;DHT22;18899;50.748;7.102;2024-03-23T07:39:43;19.90;79.20
32446;DHT22;18899;50.748;7.102;2024-03-23T07:42:09;19.50;79.60
32446;DHT22;18899;50.748;7.102;2024-03-23T07:44:34;19.60;79.70
32446;DHT22;18899;50.748;7.102;2024-03-23T07:47:03;20.30;75.60
32446;DHT22;18899;50.748;7.102;2024-03-23T07:49:28;20.50;74.80
32446;DHT22;18899;50.748;7.102;2024-03-23T07:51:54;21.10;72.20
32446;DHT22;18899;50.748;7.102;2024-03-23T07:54:19;21.40;71.50
32446;DHT22;18899;50.748;7.102;2024-03-23T07:56:45;22.00;68.90
32446;DHT22;18899;50.748;7.102;2024-03-23T07:59:11;22.60;65.40
32446;DHT22;18899;50.748;7.102;2024-03-23T08:01:36;22.50;67.40
32446;DHT22;18899;50.748;7.102;2024-03-23T08:04:02;22.70;65.90
32446;DHT22;18899;50.748;7.102;2024-03-23T08:06:27;23.20;62.40
32446;DHT22;18899;50.748;7.102;2024-03-23T08:08:55;22.70;64.20
32446;DHT22;18899;50.748;7.102;2024-03-23T08:11:28;22.90;63.90
32446;DHT22;18899;50.748;7.102;2024-03-23T08:13:54;22.50;63.00
32446;DHT22;18899;50.748;7.102;2024-03-23T08:16:20;21.20;61.80
32446;DHT22;18899;50.748;7.102;2024-03-23T08:18:46;18.80;68.90
32446;DHT22;18899;50.748;7.102;2024-03-23T08:21:12;16.70;73.00
32446;DHT22;18899;50.748;7.102;2024-03-23T08:23:37;15.10;77.60
32446;DHT22;18899;50.748;7.102;2024-03-23T08:26:09;13.90;80.30
32446;DHT22;18899;50.748;7.102;2024-03-23T08:28:36;12.80;84.00
32446;DHT22;18899;50.748;7.102;2024-03-23T08:31:04;12.00;87.30
32446;DHT22;18899;50.748;7.102;2024-03-23T08:33:30;11.80;89.00
32446;DHT22;18899;50.748;7.102;2024-03-23T08:36:01;12.00;89.20
32446;DHT22;18899;50.748;7.102;2024-03-23T08:38:27;12.20;88.10
32446;DHT22;18899;50.748;7.102;2024-03-23T08:41:04;12.70;86.30
32446;DHT22;18899;50.748;7.102;2024-03-23T08:43:30;14.00;81.60
32446;DHT22;18899;50.748;7.102;2024-03-23T08:46:13;16.10;75.60
32446;DHT22;18899;50.748;7.102;2024-03-23T08:48:40;17.80;70.00
32446;DHT22;18899;50.748;7.102;2024-03-23T08:51:07;19.20;69.00
32446;DHT22;18899;50.748;7.102;2024-03-23T08:53:34;20.90;64.40
32446;DHT22;18899;50.748;7.102;2024-03-23T08:56:00;22.20;60.50
32446;DHT22;18899;50.748;7.102;2024-03-23T08:58:27;22.50;59.10
32446;DHT22;18899;50.748;7.102;2024-03-23T09:00:54;23.00;58.80
32446;DHT22;18899;50.748;7.102;2024-03-23T09:03:24;22.70;57.80
32446;DHT22;18899;50.748;7.102;2024-03-23T09:05:50;22.00;60.60
32446;DHT22;18899;50.748;7.102;2024-03-23T09:08:16;21.30;62.20
32446;DHT22;18899;50.748;7.102;2024-03-23T09:10:42;21.20;62.10
32446;DHT22;18899;50.748;7.102;2024-03-23T09:13:08;20.20;65.10
32446;DHT22;18899;50.748;7.102;2024-03-23T09:15:35;19.80;64.90
32446;DHT22;18899;50.748;7.102;2024-03-23T09:18:01;18.50;68.80
32446;DHT22;18899;50.748;7.102;2024-03-23T09:20:26;17.50;72.90
32446;DHT22;18899;50.748;7.102;2024-03-23T09:22:52;16.10;77.70
32446;DHT22;18899;50.748;7.102;2024-03-23T09:25:17;15.50;80.90
32446;DHT22;18899;50.748;7.102;2024-03-23T09:27:48;15.60;81.30
32446;DHT22;18899;50.748;7.102;2024-03-23T09:30:14;15.60;82.20
32446;DHT22;18899;50.748;7.102;2024-03-23T09:32:43;15.30;81.90
32446;DHT22;18899;50.748;7.102;2024-03-23T09:35:09;14.90;81.50
32446;DHT22;18899;50.748;7.102;2024-03-23T09:37:35;15.90;80.70
32446;DHT22;18899;50.748;7.102;2024-03-23T09:40:01;16.60;76.90
32446;DHT22;18899;50.748;7.102;2024-03-23T09:42:26;16.80;77.60
32446;DHT22;18899;50.748;7.102;2024-03-23T09:44:52;17.90;73.30
32446;DHT22;18899;50.748;7.102;2024-03-23T09:47:18;19.10;71.20
32446;DHT22;18899;50.748;7.102;2024-03-23T09:49:43;20.80;67.20
32446;DHT22;18899;50.748;7.102;2024-03-23T09:52:09;22.10;60.60
32446;DHT22;18899;50.748;7.102;2024-03-23T09:54:35;23.00;58.60
32446;DHT22;18899;50.748;7.102;2024-03-23T09:57:01;23.70;57.80
32446;DHT22;18899;50.748;7.102;2024-03-23T09:59:26;24.20;54.40
32446;DHT22;18899;50.748;7.102;2024-03-23T10:01:55;23.60;55.10
32446;DHT22;18899;50.748;7.102;2024-03-23T10:04:41;22.40;56.30
32446;DHT22;18899;50.748;7.102;2024-03-23T10:07:18;20.50;59.20
32446;DHT22;18899;50.748;7.102;2024-03-23T10:09:44;18.80;65.50
32446;DHT22;18899;50.748;7.102;2024-03-23T10:12:14;18.00;66.50
32446;DHT22;18899;50.748;7.102;2024-03-23T10:14:41;17.80;68.60
32446;DHT22;18899;50.748;7.102;2024-03-23T10:17:16;18.10;68.80
32446;DHT22;18899;50.748;7.102;2024-03-23T10:19:46;18.90;65.70
32446;DHT22;18899;50.748;7.102;2024-03-23T10:22:21;20.10;62.80
32446;DHT22;18899;50.748;7.102;2024-03-23T10:24:48;20.70;59.60
32446;DHT22;18899;50.748;7.102;2024-03-23T10:27:19;20.00;60.40
32446;DHT22;18899;50.748;7.102;2024-03-23T10:29:48;18.50;64.90
32446;DHT22;18899;50.748;7.102;2024-03-23T10:32:16;16.80;71.20
32446;DHT22;18899;50.748;7.102;2024-03-23T10:34:41;15.70;74.80
32446;DHT22;18899;50.748;7.102;2024-03-23T10:37:08;14.90;79.50
32446;DHT22;18899;50.748;7.102;2024-03-23T10:39:38;13.40;85.50
32446;DHT22;18899;50.748;7.102;2024-03-23T10:42:10;12.30;90.60
32446;DHT22;18899;50.748;7.102;2024-03-23T10:44:37;11.80;92.20
32446;DHT22;18899;50.748;7.102;2024-03-23T10:47:02;11.40;91.90
32446;DHT22;18899;50.748;7.102;2024-03-23T10:49:31;11.10;92.50
32446;DHT22;18899;50.748;7.102;2024-03-23T10:51:58;10.80;93.60
32446;DHT22;18899;50.748;7.102;2024-03-23T10:54:25;10.40;94.60
32446;DHT22;18899;50.748;7.102;2024-03-23T10:56:57;10.00;95.60
32446;DHT22;18899;50.748;7.102;2024-03-23T10:59:23;9.70;96.70
32446;DHT22;18899;50.748;7.102;2024-03-23T11:01:56;9.50;99.50
32446;DHT22;18899;50.748;7.102;2024-03-23T11:04:33;9.40;99.90
32446;DHT22;18899;50.748;7.102;2024-03-23T11:06:59;9.60;99.90
32446;DHT22;18899;50.748;7.102;2024-03-23T11:09:41;9.80;99.90
32446;DHT22;18899;50.748;7.102;2024-03-23T11:14:47;10.20;99.90
32446;DHT22;18899;50.748;7.102;2024-03-23T11:17:23;10.60;99.90
32446;DHT22;18899;50.748;7.102;2024-03-23T11:20:09;10.80;99.90
32446;DHT22;18899;50.748;7.102;2024-03-23T11:22:45;11.00;99.90
32446;DHT22;18899;50.748;7.102;2024-03-23T11:25:18;11.10;99.90
32446;DHT22;18899;50.748;7.102;2024-03-23T11:27:46;11.40;99.90
32446;DHT22;18899;50.748;7.102;2024-03-23T11:30:16;11.50;99.90
32446;DHT22;18899;50.748;7.102;2024-03-23T11:32:47;11.70;99.90
32446;DHT22;18899;50.748;7.102;2024-03-23T11:35:45;11.90;99.90
32446;DHT22;18899;50.748;7.102;2024-03-23T11:38:12;12.30;99.90
32446;DHT22;18899;50.748;7.102;2024-03-23T11:40:42;12.40;99.90
32446;DHT22;18899;50.748;7.102;2024-03-23T11:43:10;12.30;98.40
32446;DHT22;18899;50.748;7.102;2024-03-23T11:45:43;12.10;96.50
32446;DHT22;18899;50.748;7.102;2024-03-23T11:48:10;12.10;96.30
32446;DHT22;18899;50.748;7.102;2024-03-23T11:50:38;12.40;97.60
32446;DHT22;18899;50.748;7.102;2024-03-23T11:53:22;12.70;97.30
32446;DHT22;18899;50.748;7.102;2024-03-23T11:55:55;13.10;95.00
32446;DHT22;18899;50.748;7.102;2024-03-23T11:58:22;13.20;94.30
32446;DHT22;18899;50.748;7.102;2024-03-23T12:00:58;13.30;94.10
32446;DHT22;18899;50.748;7.102;2024-03-23T12:03:25;13.00;94.10
32446;DHT22;18899;50.748;7.102;2024-03-23T12:05:52;12.80;94.50
32446;DHT22;18899;50.748;7.102;2024-03-23T12:08:36;12.70;95.90
32446;DHT22;18899;50.748;7.102;2024-03-23T12:11:17;12.40;95.50
32446;DHT22;18899;50.748;7.102;2024-03-23T12:13:44;11.70;97.60
32446;DHT22;18899;50.748;7.102;2024-03-23T12:16:13;11.80;98.70
32446;DHT22;18899;50.748;7.102;2024-03-23T12:18:41;12.00;99.90
32446;DHT22;18899;50.748;7.102;2024-03-23T12:21:06;12.60;99.70
32446;DHT22;18899;50.748;7.102;2024-03-23T12:23:33;12.60;97.30
32446;DHT22;18899;50.748;7.102;2024-03-23T12:25:58;12.60;98.20
32446;DHT22;18899;50.748;7.102;2024-03-23T12:28:24;12.40;98.50
32446;DHT22;18899;50.748;7.102;2024-03-23T12:30:51;12.30;99.00
32446;DHT22;18899;50.748;7.102;2024-03-23T12:33:17;12.10;98.20
32446;DHT22;18899;50.748;7.102;2024-03-23T12:35:43;11.80;99.90
32446;DHT22;18899;50.748;7.102;2024-03-23T12:38:08;11.90;99.90
32446;DHT22;18899;50.748;7.102;2024-03-23T12:40:34;12.20;99.80
32446;DHT22;18899;50.748;7.102;2024-03-23T12:42:59;12.60;99.60
32446;DHT22;18899;50.748;7.102;2024-03-23T12:45:25;12.80;99.00
32446;DHT22;18899;50.748;7.102;2024-03-23T12:47:50;12.90;97.90
32446;DHT22;18899;50.748;7.102;2024-03-23T12:50:19;13.00;97.40
32446;DHT22;18899;50.748;7.102;2024-03-23T12:52:44;12.60;95.00
32446;DHT22;18899;50.748;7.102;2024-03-23T12:55:10;12.10;95.20
32446;DHT22;18899;50.748;7.102;2024-03-23T12:57:36;11.50;96.30
32446;DHT22;18899;50.748;7.102;2024-03-23T13:00:01;11.10;97.20
32446;DHT22;18899;50.748;7.102;2024-03-23T13:02:28;10.80;97.90
32446;DHT22;18899;50.748;7.102;2024-03-23T13:04:55;10.30;99.00
32446;DHT22;18899;50.748;7.102;2024-03-23T13:07:22;10.00;99.50
32446;DHT22;18899;50.748;7.102;2024-03-23T13:09:50;9.70;99.90
32446;DHT22;18899;50.748;7.102;2024-03-23T13:12:17;9.80;99.90
32446;DHT22;18899;50.748;7.102;2024-03-23T13:14:44;9.70;99.90
32446;DHT22;18899;50.748;7.102;2024-03-23T13:17:09;9.90;99.90
32446;DHT22;18899;50.748;7.102;2024-03-23T13:19:35;10.10;99.90
32446;DHT22;18899;50.748;7.102;2024-03-23T13:22:01;10.20;99.90
32446;DHT22;18899;50.748;7.102;2024-03-23T13:24:27;10.20;99.90
32446;DHT22;18899;50.748;7.102;2024-03-23T13:26:53;10.40;99.90
32446;DHT22;18899;50.748;7.102;2024-03-23T13:29:19;10.70;99.90
32446;DHT22;18899;50.748;7.102;2024-03-23T13:31:46;10.90;99.90
32446;DHT22;18899;50.748;7.102;2024-03-23T13:34:12;10.90;99.90
32446;DHT22;18899;50.748;7.102;2024-03-23T13:36:43;10.90;99.70
32446;DHT22;18899;50.748;7.102;2024-03-23T13:39:09;11.00;99.80
32446;DHT22;18899;50.748;7.102;2024-03-23T13:41:44;11.00;98.20
32446;DHT22;18899;50.748;7.102;2024-03-23T13:44:12;11.00;98.40
32446;DHT22;18899;50.748;7.102;2024-03-23T13:46:41;10.90;97.30
32446;DHT22;18899;50.748;7.102;2024-03-23T13:49:30;10.80;97.80
32446;DHT22;18899;50.748;7.102;2024-03-23T13:51:56;10.70;96.30
32446;DHT22;18899;50.748;7.102;2024-03-23T13:54:25;10.70;97.30
32446;DHT22;18899;50.748;7.102;2024-03-23T13:56:51;10.80;97.30
32446;DHT22;18899;50.748;7.102;2024-03-23T13:59:17;11.20;97.30
32446;DHT22;18899;50.748;7.102;2024-03-23T14:01:46;11.30;96.80
32446;DHT22;18899;50.748;7.102;2024-03-23T14:04:12;11.30;97.30
32446;DHT22;18899;50.748;7.102;2024-03-23T14:06:38;11.00;98.40
32446;DHT22;18899;50.748;7.102;2024-03-23T14:09:05;11.10;98.70
32446;DHT22;18899;50.748;7.102;2024-03-23T14:11:30;11.10;98.50
32446;DHT22;18899;50.748;7.102;2024-03-23T14:13:56;11.20;98.30
32446;DHT22;18899;50.748;7.102;2024-03-23T14:16:22;11.40;98.10
32446;DHT22;18899;50.748;7.102;2024-03-23T14:18:47;11.40;98.00
32446;DHT22;18899;50.748;7.102;2024-03-23T14:21:13;11.50;98.50
32446;DHT22;18899;50.748;7.102;2024-03-23T14:23:38;11.40;98.30
32446;DHT22;18899;50.748;7.102;2024-03-23T14:26:06;11.30;98.40
32446;DHT22;18899;50.748;7.102;2024-03-23T14:28:32;11.20;98.80
32446;DHT22;18899;50.748;7.102;2024-03-23T14:30:57;11.00;99.60
32446;DHT22;18899;50.748;7.102;2024-03-23T14:33:24;11.00;99.30
32446;DHT22;18899;50.748;7.102;2024-03-23T14:35:56;10.90;99.00
32446;DHT22;18899;50.748;7.102;2024-03-23T14:38:25;10.80;98.30
32446;DHT22;18899;50.748;7.102;2024-03-23T14:40:50;10.50;98.30
32446;DHT22;18899;50.748;7.102;2024-03-23T14:43:19;10.30;99.90
32446;DHT22;18899;50.748;7.102;2024-03-23T14:46:09;9.90;99.90
32446;DHT22;18899;50.748;7.102;2024-03-23T14:48:35;9.70;99.90
32446;DHT22;18899;50.748;7.102;2024-03-23T14:51:02;9.50;99.90
32446;DHT22;18899;50.748;7.102;2024-03-23T14:53:31;9.20;99.90
32446;DHT22;18899;50.748;7.102;2024-03-23T14:55:57;8.80;99.90
32446;DHT22;18899;50.748;7.102;2024-03-23T14:58:23;8.70;99.90
32446;DHT22;18899;50.748;7.102;2024-03-23T15:00:49;8.70;99.90
32446;DHT22;18899;50.748;7.102;2024-03-23T15:03:15;8.60;99.90
32446;DHT22;18899;50.748;7.102;2024-03-23T15:05:41;8.60;99.90
32446;DHT22;18899;50.748;7.102;2024-03-23T15:08:07;8.80;99.90
32446;DHT22;18899;50.748;7.102;2024-03-23T15:10:35;8.90;99.90
32446;DHT22;18899;50.748;7.102;2024-03-23T15:13:00;9.10;99.90
32446;DHT22;18899;50.748;7.102;2024-03-23T15:15:26;9.40;99.90
32446;DHT22;18899;50.748;7.102;2024-03-23T15:17:51;9.30;99.90
32446;DHT22;18899;50.748;7.102;2024-03-23T15:20:17;9.20;99.90
32446;DHT22;18899;50.748;7.102;2024-03-23T15:22:43;9.20;99.90
32446;DHT22;18899;50.748;7.102;2024-03-23T15:25:08;9.10;99.90
32446;DHT22;18899;50.748;7.102;2024-03-23T15:27:34;9.20;99.90
32446;DHT22;18899;50.748;7.102;2024-03-23T15:29:59;9.30;99.90
32446;DHT22;18899;50.748;7.102;2024-03-23T15:32:25;9.20;99.90
32446;DHT22;18899;50.748;7.102;2024-03-23T15:34:50;9.10;99.90
32446;DHT22;18899;50.748;7.102;2024-03-23T15:37:17;9.10;99.90
32446;DHT22;18899;50.748;7.102;2024-03-23T15:39:43;9.00;99.90
32446;DHT22;18899;50.748;7.102;2024-03-23T15:42:08;9.00;99.90
32446;DHT22;18899;50.748;7.102;2024-03-23T15:44:35;9.10;99.90
32446;DHT22;18899;50.748;7.102;2024-03-23T15:47:01;9.30;99.90
32446;DHT22;18899;50.748;7.102;2024-03-23T15:49:26;9.30;99.90
32446;DHT22;18899;50.748;7.102;2024-03-23T15:51:52;9.20;99.90
32446;DHT22;18899;50.748;7.102;2024-03-23T15:54:18;9.20;99.90
32446;DHT22;18899;50.748;7.102;2024-03-23T15:56:44;9.00;99.90
32446;DHT22;18899;50.748;7.102;2024-03-23T15:59:09;8.90;99.90
32446;DHT22;18899;50.748;7.102;2024-03-23T16:01:35;8.80;99.90
32446;DHT22;18899;50.748;7.102;2024-03-23T16:04:01;8.70;99.90
32446;DHT22;18899;50.748;7.102;2024-03-23T16:06:27;8.70;99.90
32446;DHT22;18899;50.748;7.102;2024-03-23T16:08:52;8.60;99.90
32446;DHT22;18899;50.748;7.102;2024-03-23T16:11:18;8.60;99.90
32446;DHT22;18899;50.748;7.102;2024-03-23T16:13:44;8.60;99.90
32446;DHT22;18899;50.748;7.102;2024-03-23T16:16:09;8.40;99.90
32446;DHT22;18899;50.748;7.102;2024-03-23T16:18:36;8.20;99.90
32446;DHT22;18899;50.748;7.102;2024-03-23T16:21:03;8.10;99.90
32446;DHT22;18899;50.748;7.102;2024-03-23T16:23:29;8.10;99.90
32446;DHT22;18899;50.748;7.102;2024-03-23T16:25:55;8.00;99.90
32446;DHT22;18899;50.748;7.102;2024-03-23T16:28:29;8.00;99.90
32446;DHT22;18899;50.748;7.102;2024-03-23T16:31:02;7.90;99.90
32446;DHT22;18899;50.748;7.102;2024-03-23T16:33:28;7.90;99.90
32446;DHT22;18899;50.748;7.102;2024-03-23T16:36:04;7.80;99.90